sensor_id;sensor_type;location;lat;lon;timestamp;pressure;altitude;pressure_sealevel;temperature;humidity
61474;BME280;53694;49.784;30.150;2023-02-28T00:00:21;100745.39;;;-0.81;70.39
61474;BME280;53694;49.784;30.150;2023-02-28T00:01:23;100746.64;;;-0.51;69.75
61474;BME280;53694;49.784;30.150;2023-02-28T00:02:25;100745.51;;;-0.13;68.62
61474;BME280;53694;49.784;30.150;2023-02-28T00:03:26;100739.47;;;0.28;67.35
61474;BME280;53694;49.784;30.150;2023-02-28T00:04:28;100749.27;;;0.59;66.13
61474;BME280;53694;49.784;30.150;2023-02-28T00:05:29;100741.75;;;0.77;65.48
61474;BME280;53694;49.784;30.150;2023-02-28T00:06:31;100739.56;;;0.84;64.86
61474;BME280;53694;49.784;30.150;2023-02-28T00:07:33;100743.08;;;0.79;64.49
61474;BME280;53694;49.784;30.150;2023-02-28T00:08:35;100735.78;;;0.69;64.59
61474;BME280;53694;49.784;30.150;2023-02-28T00:09:37;100736.55;;;0.55;64.81
61474;BME280;53694;49.784;30.150;2023-02-28T00:10:38;100741.66;;;0.41;65.26
61474;BME280;53694;49.784;30.150;2023-02-28T00:11:40;100742.45;;;0.26;65.36
61474;BME280;53694;49.784;30.150;2023-02-28T00:12:41;100736.17;;;0.10;65.41
61474;BME280;53694;49.784;30.150;2023-02-28T00:13:44;100741.50;;;-0.05;65.47
61474;BME280;53694;49.784;30.150;2023-02-28T00:14:46;100748.17;;;-0.23;66.06
61474;BME280;53694;49.784;30.150;2023-02-28T00:15:58;100743.75;;;-0.39;66.80
61474;BME280;53694;49.784;30.150;2023-02-28T00:16:53;100743.41;;;-0.53;67.51
61474;BME280;53694;49.784;30.150;2023-02-28T00:17:55;100741.70;;;-0.64;68.09
61474;BME280;53694;49.784;30.150;2023-02-28T00:18:56;100737.88;;;-0.73;68.38
61474;BME280;53694;49.784;30.150;2023-02-28T00:19:58;100744.02;;;-0.83;68.82
61474;BME280;53694;49.784;30.150;2023-02-28T00:20:59;100739.63;;;-0.89;69.12
61474;BME280;53694;49.784;30.150;2023-02-28T00:22:01;100746.88;;;-0.95;69.48
61474;BME280;53694;49.784;30.150;2023-02-28T00:23:02;100750.36;;;-0.99;69.56
61474;BME280;53694;49.784;30.150;2023-02-28T00:24:05;100750.86;;;-1.03;69.79
61474;BME280;53694;49.784;30.150;2023-02-28T00:25:08;100749.75;;;-1.07;69.64
61474;BME280;53694;49.784;30.150;2023-02-28T00:26:10;100751.86;;;-1.14;69.85
61474;BME280;53694;49.784;30.150;2023-02-28T00:27:12;100748.28;;;-1.19;70.11
61474;BME280;53694;49.784;30.150;2023-02-28T00:28:14;100747.17;;;-1.23;70.80
61474;BME280;53694;49.784;30.150;2023-02-28T00:29:15;100742.05;;;-1.25;71.27
61474;BME280;53694;49.784;30.150;2023-02-28T00:30:20;100746.43;;;-1.19;71.66
61474;BME280;53694;49.784;30.150;2023-02-28T00:31:21;100745.53;;;-0.97;71.47
61474;BME280;53694;49.784;30.150;2023-02-28T00:32:23;100742.00;;;-0.61;70.72
61474;BME280;53694;49.784;30.150;2023-02-28T00:33:25;100746.55;;;-0.24;69.22
61474;BME280;53694;49.784;30.150;2023-02-28T00:34:26;100746.45;;;0.13;67.25
61474;BME280;53694;49.784;30.150;2023-02-28T00:35:28;100740.34;;;0.54;66.17
61474;BME280;53694;49.784;30.150;2023-02-28T00:36:30;100746.88;;;0.83;64.58
61474;BME280;53694;49.784;30.150;2023-02-28T00:37:31;100739.31;;;0.95;64.23
61474;BME280;53694;49.784;30.150;2023-02-28T00:38:33;100742.54;;;0.97;63.78
61474;BME280;53694;49.784;30.150;2023-02-28T00:39:36;100740.93;;;0.91;63.80
61474;BME280;53694;49.784;30.150;2023-02-28T00:40:38;100743.08;;;0.79;63.65
61474;BME280;53694;49.784;30.150;2023-02-28T00:41:39;100736.30;;;0.61;63.65
61474;BME280;53694;49.784;30.150;2023-02-28T00:42:41;100740.05;;;0.40;64.15
61474;BME280;53694;49.784;30.150;2023-02-28T00:43:42;100748.08;;;0.19;64.68
61474;BME280;53694;49.784;30.150;2023-02-28T00:44:44;100741.55;;;0.00;65.62
61474;BME280;53694;49.784;30.150;2023-02-28T00:45:45;100741.19;;;-0.14;66.53
61474;BME280;53694;49.784;30.150;2023-02-28T00:46:47;100749.49;;;-0.26;67.01
61474;BME280;53694;49.784;30.150;2023-02-28T00:47:48;100750.53;;;-0.37;67.59
61474;BME280;53694;49.784;30.150;2023-02-28T00:48:50;100747.75;;;-0.47;67.96
61474;BME280;53694;49.784;30.150;2023-02-28T00:49:51;100746.38;;;-0.55;68.18
61474;BME280;53694;49.784;30.150;2023-02-28T00:50:53;100748.19;;;-0.65;68.20
61474;BME280;53694;49.784;30.150;2023-02-28T00:51:55;100754.06;;;-0.73;68.52
61474;BME280;53694;49.784;30.150;2023-02-28T00:52:57;100754.80;;;-0.83;68.71
61474;BME280;53694;49.784;30.150;2023-02-28T00:53:58;100749.88;;;-0.91;68.95
61474;BME280;53694;49.784;30.150;2023-02-28T00:55:00;100750.36;;;-0.99;69.25
61474;BME280;53694;49.784;30.150;2023-02-28T00:56:02;100752.20;;;-1.05;69.59
61474;BME280;53694;49.784;30.150;2023-02-28T00:57:04;100757.80;;;-1.12;69.98
61474;BME280;53694;49.784;30.150;2023-02-28T00:58:05;100750.75;;;-1.18;70.35
61474;BME280;53694;49.784;30.150;2023-02-28T00:59:07;100753.13;;;-1.21;70.81
61474;BME280;53694;49.784;30.150;2023-02-28T01:00:10;100744.70;;;-1.30;70.75
61474;BME280;53694;49.784;30.150;2023-02-28T01:01:11;100751.82;;;-1.19;70.69
61474;BME280;53694;49.784;30.150;2023-02-28T01:02:13;100755.75;;;-0.99;70.52
61474;BME280;53694;49.784;30.150;2023-02-28T01:03:16;100760.56;;;-0.69;70.03
61474;BME280;53694;49.784;30.150;2023-02-28T01:04:18;100760.03;;;-0.29;69.06
61474;BME280;53694;49.784;30.150;2023-02-28T01:05:19;100765.61;;;0.12;67.97
61474;BME280;53694;49.784;30.150;2023-02-28T01:06:21;100764.14;;;0.52;66.48
61474;BME280;53694;49.784;30.150;2023-02-28T01:07:23;100762.01;;;0.84;64.80
61474;BME280;53694;49.784;30.150;2023-02-28T01:08:25;100764.73;;;0.99;64.40
61474;BME280;53694;49.784;30.150;2023-02-28T01:09:26;100765.83;;;1.04;64.10
61474;BME280;53694;49.784;30.150;2023-02-28T01:10:28;100760.14;;;1.00;63.56
61474;BME280;53694;49.784;30.150;2023-02-28T01:11:30;100766.61;;;0.84;62.19
61474;BME280;53694;49.784;30.150;2023-02-28T01:12:32;100763.62;;;0.60;63.07
61474;BME280;53694;49.784;30.150;2023-02-28T01:13:33;100769.77;;;0.40;63.86
61474;BME280;53694;49.784;30.150;2023-02-28T01:14:35;100771.60;;;0.24;64.33
61474;BME280;53694;49.784;30.150;2023-02-28T01:15:37;100777.72;;;0.04;64.70
61474;BME280;53694;49.784;30.150;2023-02-28T01:16:40;100769.81;;;-0.13;64.92
61474;BME280;53694;49.784;30.150;2023-02-28T01:17:42;100781.62;;;-0.29;65.49
61474;BME280;53694;49.784;30.150;2023-02-28T01:18:43;100776.12;;;-0.44;66.16
61474;BME280;53694;49.784;30.150;2023-02-28T01:19:45;100774.69;;;-0.57;66.36
61474;BME280;53694;49.784;30.150;2023-02-28T01:20:47;100774.32;;;-0.71;67.06
61474;BME280;53694;49.784;30.150;2023-02-28T01:21:49;100773.41;;;-0.82;67.61
61474;BME280;53694;49.784;30.150;2023-02-28T01:22:50;100774.16;;;-0.91;67.71
61474;BME280;53694;49.784;30.150;2023-02-28T01:23:51;100765.98;;;-1.02;68.16
61474;BME280;53694;49.784;30.150;2023-02-28T01:24:53;100771.84;;;-1.10;68.47
61474;BME280;53694;49.784;30.150;2023-02-28T01:25:54;100771.23;;;-1.17;68.98
61474;BME280;53694;49.784;30.150;2023-02-28T01:26:56;100766.88;;;-1.23;69.52
61474;BME280;53694;49.784;30.150;2023-02-28T01:27:58;100781.93;;;-1.27;69.26
61474;BME280;53694;49.784;30.150;2023-02-28T01:28:59;100780.81;;;-1.31;69.29
61474;BME280;53694;49.784;30.150;2023-02-28T01:30:01;100780.50;;;-1.35;69.60
61474;BME280;53694;49.784;30.150;2023-02-28T01:31:02;100771.03;;;-1.37;69.36
61474;BME280;53694;49.784;30.150;2023-02-28T01:32:04;100770.72;;;-1.41;69.47
61474;BME280;53694;49.784;30.150;2023-02-28T01:33:06;100773.67;;;-1.42;69.55
61474;BME280;53694;49.784;30.150;2023-02-28T01:34:07;100779.56;;;-1.45;69.83
61474;BME280;53694;49.784;30.150;2023-02-28T01:35:09;100775.52;;;-1.48;69.79
61474;BME280;53694;49.784;30.150;2023-02-28T01:36:13;100781.40;;;-1.51;69.87
61474;BME280;53694;49.784;30.150;2023-02-28T01:37:15;100779.20;;;-1.54;70.23
61474;BME280;53694;49.784;30.150;2023-02-28T01:38:17;100781.35;;;-1.56;70.35
61474;BME280;53694;49.784;30.150;2023-02-28T01:39:18;100783.23;;;-1.57;70.43
61474;BME280;53694;49.784;30.150;2023-02-28T01:40:20;100782.21;;;-1.51;70.10
61474;BME280;53694;49.784;30.150;2023-02-28T01:41:28;100785.39;;;-1.32;69.39
61474;BME280;53694;49.784;30.150;2023-02-28T01:42:27;100784.86;;;-1.02;68.83
61474;BME280;53694;49.784;30.150;2023-02-28T01:45:04;100785.52;;;-0.05;65.84
61474;BME280;53694;49.784;30.150;2023-02-28T01:47:07;100782.91;;;0.16;65.18
61474;BME280;53694;49.784;30.150;2023-02-28T01:48:08;100788.27;;;0.01;64.50
61474;BME280;53694;49.784;30.150;2023-02-28T01:49:13;100780.66;;;-0.08;64.51
61474;BME280;53694;49.784;30.150;2023-02-28T01:50:21;100782.75;;;-0.20;64.42
61474;BME280;53694;49.784;30.150;2023-02-28T01:51:30;100784.27;;;-0.34;64.29
61474;BME280;53694;49.784;30.150;2023-02-28T01:52:32;100779.59;;;-0.49;64.79
61474;BME280;53694;49.784;30.150;2023-02-28T01:53:39;100774.89;;;-0.64;65.29
61474;BME280;53694;49.784;30.150;2023-02-28T01:54:40;100775.09;;;-0.76;65.81
61474;BME280;53694;49.784;30.150;2023-02-28T01:55:45;100767.72;;;-0.85;66.38
61474;BME280;53694;49.784;30.150;2023-02-28T01:56:51;100776.55;;;-0.95;66.65
61474;BME280;53694;49.784;30.150;2023-02-28T01:57:55;100773.23;;;-1.02;67.09
61474;BME280;53694;49.784;30.150;2023-02-28T01:58:58;100763.76;;;-1.10;67.40
61474;BME280;53694;49.784;30.150;2023-02-28T02:00:03;100765.84;;;-1.17;67.75
61474;BME280;53694;49.784;30.150;2023-02-28T02:01:05;100770.12;;;-1.21;68.09
61474;BME280;53694;49.784;30.150;2023-02-28T02:02:06;100758.22;;;-1.25;68.03
61474;BME280;53694;49.784;30.150;2023-02-28T02:03:11;100760.37;;;-1.27;68.24
61474;BME280;53694;49.784;30.150;2023-02-28T02:04:13;100763.56;;;-1.30;68.18
61474;BME280;53694;49.784;30.150;2023-02-28T02:05:18;100757.59;;;-1.32;68.45
61474;BME280;53694;49.784;30.150;2023-02-28T02:06:22;100759.94;;;-1.41;68.33
61474;BME280;53694;49.784;30.150;2023-02-28T02:07:25;100759.94;;;-1.41;68.33
61474;BME280;53694;49.784;30.150;2023-02-28T02:08:29;100768.78;;;-1.45;68.49
61474;BME280;53694;49.784;30.150;2023-02-28T02:09:30;100766.63;;;-1.48;68.72
61474;BME280;53694;49.784;30.150;2023-02-28T02:10:48;100774.12;;;-1.51;68.83
61474;BME280;53694;49.784;30.150;2023-02-28T02:11:47;100769.23;;;-1.54;68.96
61474;BME280;53694;49.784;30.150;2023-02-28T02:18:23;100779.33;;;-1.66;69.70
61474;BME280;53694;49.784;30.150;2023-02-28T02:25:13;100783.05;;;-1.72;70.55
61474;BME280;53694;49.784;30.150;2023-02-28T02:31:45;100787.30;;;0.27;64.30
61474;BME280;53694;49.784;30.150;2023-02-28T02:34:34;100804.81;;;0.19;62.83
61474;BME280;53694;49.784;30.150;2023-02-28T02:37:39;100793.62;;;-0.05;63.09
61474;BME280;53694;49.784;30.150;2023-02-28T02:42:44;100809.67;;;-0.99;65.32
61474;BME280;53694;49.784;30.150;2023-02-28T02:43:50;100823.17;;;-1.27;66.30
61474;BME280;53694;49.784;30.150;2023-02-28T02:45:09;100823.17;;;-1.27;66.30
61474;BME280;53694;49.784;30.150;2023-02-28T02:46:31;100825.50;;;-1.35;66.83
61474;BME280;53694;49.784;30.150;2023-02-28T02:47:30;100827.30;;;-1.41;67.45
61474;BME280;53694;49.784;30.150;2023-02-28T02:48:34;100827.25;;;-1.46;67.65
61474;BME280;53694;49.784;30.150;2023-02-28T02:49:39;100824.51;;;-1.51;67.60
61474;BME280;53694;49.784;30.150;2023-02-28T02:50:59;100833.34;;;-1.56;67.82
61474;BME280;53694;49.784;30.150;2023-02-28T02:52:01;100830.59;;;-1.61;67.98
61474;BME280;53694;49.784;30.150;2023-02-28T02:53:03;100836.74;;;-1.65;68.20
61474;BME280;53694;49.784;30.150;2023-02-28T02:54:19;100844.50;;;-1.69;68.45
61474;BME280;53694;49.784;30.150;2023-02-28T02:55:22;100842.88;;;-1.70;68.68
61474;BME280;53694;49.784;30.150;2023-02-28T02:56:27;100844.99;;;-1.72;68.97
61474;BME280;53694;49.784;30.150;2023-02-28T02:57:36;100843.37;;;-1.73;69.21
61474;BME280;53694;49.784;30.150;2023-02-28T02:58:37;100845.80;;;-1.71;69.29
61474;BME280;53694;49.784;30.150;2023-02-28T02:59:41;100849.57;;;-1.72;69.49
61474;BME280;53694;49.784;30.150;2023-02-28T03:00:46;100849.57;;;-1.72;69.49
61474;BME280;53694;49.784;30.150;2023-02-28T03:01:55;100844.45;;;-1.74;69.65
61474;BME280;53694;49.784;30.150;2023-02-28T03:02:57;100846.30;;;-1.74;69.73
61474;BME280;53694;49.784;30.150;2023-02-28T03:04:11;100843.86;;;-1.76;69.75
61474;BME280;53694;49.784;30.150;2023-02-28T03:05:23;100844.94;;;-1.77;69.93
61474;BME280;53694;49.784;30.150;2023-02-28T03:06:25;100849.73;;;-1.79;70.06
61474;BME280;53694;49.784;30.150;2023-02-28T03:07:27;100838.97;;;-1.79;70.07
61474;BME280;53694;49.784;30.150;2023-02-28T03:08:36;100842.73;;;-1.80;70.21
61474;BME280;53694;49.784;30.150;2023-02-28T03:09:35;100844.19;;;-1.72;70.35
61474;BME280;53694;49.784;30.150;2023-02-28T03:10:39;100840.41;;;-1.49;69.95
61474;BME280;53694;49.784;30.150;2023-02-28T03:11:42;100831.34;;;-1.16;69.24
61474;BME280;53694;49.784;30.150;2023-02-28T03:12:49;100839.30;;;-0.72;68.13
61474;BME280;53694;49.784;30.150;2023-02-28T03:18:04;100844.92;;;-0.05;64.62
61474;BME280;53694;49.784;30.150;2023-02-28T03:20:35;100842.36;;;-0.27;64.46
61474;BME280;53694;49.784;30.150;2023-02-28T03:23:00;100853.20;;;-0.59;64.51
61474;BME280;53694;49.784;30.150;2023-02-28T03:24:10;100850.05;;;-0.78;64.76
61474;BME280;53694;49.784;30.150;2023-02-28T03:25:35;100844.77;;;-0.94;65.34
61474;BME280;53694;49.784;30.150;2023-02-28T03:26:27;100854.34;;;-1.09;65.57
61474;BME280;53694;49.784;30.150;2023-02-28T03:27:49;100846.09;;;-1.24;65.93
61474;BME280;53694;49.784;30.150;2023-02-28T03:31:27;100850.32;;;-1.55;67.41
61474;BME280;53694;49.784;30.150;2023-02-28T03:32:38;100857.53;;;-1.61;67.67
61474;BME280;53694;49.784;30.150;2023-02-28T03:33:41;100860.98;;;-1.65;67.85
61474;BME280;53694;49.784;30.150;2023-02-28T03:34:53;100860.66;;;-1.69;68.41
61474;BME280;53694;49.784;30.150;2023-02-28T03:35:59;100853.66;;;-1.70;68.60
61474;BME280;53694;49.784;30.150;2023-02-28T03:37:04;100850.96;;;-1.70;68.85
61474;BME280;53694;49.784;30.150;2023-02-28T03:40:42;100853.34;;;-1.73;69.12
61474;BME280;53694;49.784;30.150;2023-02-28T03:41:48;100847.37;;;-1.76;69.02
61474;BME280;53694;49.784;30.150;2023-02-28T03:42:52;100857.91;;;-1.74;68.98
61474;BME280;53694;49.784;30.150;2023-02-28T03:44:11;100851.95;;;-1.76;68.98
61474;BME280;53694;49.784;30.150;2023-02-28T03:45:11;100855.45;;;-1.76;69.04
61474;BME280;53694;49.784;30.150;2023-02-28T03:46:16;100860.02;;;-1.76;69.01
61474;BME280;53694;49.784;30.150;2023-02-28T03:47:26;100857.06;;;-1.74;69.25
61474;BME280;53694;49.784;30.150;2023-02-28T03:48:38;100853.56;;;-1.75;68.66
61474;BME280;53694;49.784;30.150;2023-02-28T03:49:49;100859.47;;;-1.78;69.00
61474;BME280;53694;49.784;30.150;2023-02-28T03:50:53;100860.52;;;-1.79;69.03
61474;BME280;53694;49.784;30.150;2023-02-28T03:51:56;100850.81;;;-1.80;68.84
61474;BME280;53694;49.784;30.150;2023-02-28T03:53:06;100854.80;;;-1.83;68.83
61474;BME280;53694;49.784;30.150;2023-02-28T03:54:10;100854.80;;;-1.83;68.82
61474;BME280;53694;49.784;30.150;2023-02-28T03:55:14;100854.74;;;-1.88;68.41
61474;BME280;53694;49.784;30.150;2023-02-28T03:56:24;100852.57;;;-1.91;68.62
61474;BME280;53694;49.784;30.150;2023-02-28T03:57:42;100858.19;;;-1.92;68.69
61474;BME280;53694;49.784;30.150;2023-02-28T03:59:08;100855.17;;;-1.96;68.95
61474;BME280;53694;49.784;30.150;2023-02-28T04:00:30;100855.17;;;-1.96;68.95
61474;BME280;53694;49.784;30.150;2023-02-28T04:02:42;100860.55;;;-1.96;68.97
61474;BME280;53694;49.784;30.150;2023-02-28T04:03:43;100858.67;;;-1.95;69.51
61474;BME280;53694;49.784;30.150;2023-02-28T04:04:45;100856.30;;;-1.92;69.77
61474;BME280;53694;49.784;30.150;2023-02-28T04:05:52;100859.58;;;-1.90;69.18
61474;BME280;53694;49.784;30.150;2023-02-28T04:07:03;100859.58;;;-1.90;68.86
61474;BME280;53694;49.784;30.150;2023-02-28T04:08:07;100856.88;;;-1.90;68.78
61474;BME280;53694;49.784;30.150;2023-02-28T04:09:12;100852.31;;;-1.89;68.95
61474;BME280;53694;49.784;30.150;2023-02-28T04:10:15;100859.80;;;-1.91;68.64
61474;BME280;53694;49.784;30.150;2023-02-28T04:11:42;100866.27;;;-1.92;68.47
61474;BME280;53694;49.784;30.150;2023-02-28T04:12:43;100859.25;;;-1.93;68.47
61474;BME280;53694;49.784;30.150;2023-02-28T04:13:45;100859.52;;;-1.95;68.62
61474;BME280;53694;49.784;30.150;2023-02-28T04:14:46;100858.67;;;-1.95;68.86
61474;BME280;53694;49.784;30.150;2023-02-28T04:15:48;100858.67;;;-1.95;68.67
61474;BME280;53694;49.784;30.150;2023-02-28T04:16:49;100855.98;;;-1.95;68.73
61474;BME280;53694;49.784;30.150;2023-02-28T04:17:51;100862.44;;;-1.96;68.92
61474;BME280;53694;49.784;30.150;2023-02-28T04:18:52;100851.11;;;-1.98;68.94
61474;BME280;53694;49.784;30.150;2023-02-28T04:19:54;100851.11;;;-1.98;69.29
61474;BME280;53694;49.784;30.150;2023-02-28T04:20:59;100852.73;;;-1.97;69.25
61474;BME280;53694;49.784;30.150;2023-02-28T04:22:01;100858.13;;;-1.97;69.11
61474;BME280;53694;49.784;30.150;2023-02-28T04:23:02;100858.13;;;-1.97;69.18
61474;BME280;53694;49.784;30.150;2023-02-28T04:24:05;100858.13;;;-1.97;69.14
61474;BME280;53694;49.784;30.150;2023-02-28T04:25:08;100856.50;;;-1.98;68.91
61474;BME280;53694;49.784;30.150;2023-02-28T04:26:09;100868.56;;;-2.01;68.87
61474;BME280;53694;49.784;30.150;2023-02-28T04:27:11;100865.32;;;-2.03;68.93
61474;BME280;53694;49.784;30.150;2023-02-28T04:28:12;100856.43;;;-2.04;69.35
61474;BME280;53694;49.784;30.150;2023-02-28T04:29:26;100860.75;;;-2.03;69.49
61474;BME280;53694;49.784;30.150;2023-02-28T04:30:25;100858.13;;;-1.97;69.64
61474;BME280;53694;49.784;30.150;2023-02-28T04:31:26;100862.44;;;-1.96;69.55
61474;BME280;53694;49.784;30.150;2023-02-28T04:32:28;100862.44;;;-1.96;69.55
61474;BME280;53694;49.784;30.150;2023-02-28T04:33:31;100866.75;;;-1.95;69.66
61474;BME280;53694;49.784;30.150;2023-02-28T04:34:33;100864.64;;;-1.93;69.33
61474;BME280;53694;49.784;30.150;2023-02-28T04:35:34;100860.06;;;-1.93;69.32
61474;BME280;53694;49.784;30.150;2023-02-28T04:36:36;100865.19;;;-1.91;68.83
61474;BME280;53694;49.784;30.150;2023-02-28T04:37:38;100862.50;;;-1.91;68.79
61474;BME280;53694;49.784;30.150;2023-02-28T04:38:40;100860.06;;;-1.93;68.67
61474;BME280;53694;49.784;30.150;2023-02-28T04:39:42;100860.06;;;-1.93;68.68
61474;BME280;53694;49.784;30.150;2023-02-28T04:40:43;100862.50;;;-1.91;68.75
61474;BME280;53694;49.784;30.150;2023-02-28T04:41:45;100857.11;;;-1.91;68.34
61474;BME280;53694;49.784;30.150;2023-02-28T04:42:47;100865.45;;;-1.93;68.48
61474;BME280;53694;49.784;30.150;2023-02-28T04:43:49;100875.41;;;-1.93;68.28
61474;BME280;53694;49.784;30.150;2023-02-28T04:44:51;100870.02;;;-1.93;68.18
61474;BME280;53694;49.784;30.150;2023-02-28T04:45:54;100867.33;;;-1.93;68.05
61474;BME280;53694;49.784;30.150;2023-02-28T04:46:56;100873.78;;;-1.94;68.03
61474;BME280;53694;49.784;30.150;2023-02-28T04:47:57;100872.98;;;-1.95;68.16
61474;BME280;53694;49.784;30.150;2023-02-28T04:48:59;100875.89;;;-1.96;68.09
61474;BME280;53694;49.784;30.150;2023-02-28T04:50:01;100873.46;;;-1.98;67.97
61474;BME280;53694;49.784;30.150;2023-02-28T04:51:04;100872.06;;;-2.01;67.90
61474;BME280;53694;49.784;30.150;2023-02-28T04:52:06;100877.71;;;-2.02;68.09
61474;BME280;53694;49.784;30.150;2023-02-28T04:53:07;100876.90;;;-2.03;68.21
61474;BME280;53694;49.784;30.150;2023-02-28T04:54:09;100881.47;;;-2.03;68.25
61474;BME280;53694;49.784;30.150;2023-02-28T04:55:10;100883.58;;;-2.05;68.21
61474;BME280;53694;49.784;30.150;2023-02-28T04:56:15;100880.34;;;-2.07;68.12
61474;BME280;53694;49.784;30.150;2023-02-28T04:57:17;100884.32;;;-2.10;68.19
61474;BME280;53694;49.784;30.150;2023-02-28T04:58:18;100885.39;;;-2.11;68.19
61474;BME280;53694;49.784;30.150;2023-02-28T04:59:20;100886.76;;;-2.08;68.46
61474;BME280;53694;49.784;30.150;2023-02-28T05:00:21;100895.67;;;-2.08;68.92
61474;BME280;53694;49.784;30.150;2023-02-28T05:01:29;100891.91;;;-2.07;68.91
61474;BME280;53694;49.784;30.150;2023-02-28T05:02:30;100890.59;;;-2.04;68.82
61474;BME280;53694;49.784;30.150;2023-02-28T05:03:34;100894.67;;;-2.02;68.94
61474;BME280;53694;49.784;30.150;2023-02-28T05:04:36;100894.19;;;-1.98;68.91
61474;BME280;53694;49.784;30.150;2023-02-28T05:05:37;100897.44;;;-1.96;68.47
61474;BME280;53694;49.784;30.150;2023-02-28T05:06:39;100900.12;;;-1.96;68.22
61474;BME280;53694;49.784;30.150;2023-02-28T05:07:41;100894.52;;;-1.95;68.20
61474;BME280;53694;49.784;30.150;2023-02-28T05:08:42;100895.33;;;-1.94;68.03
61474;BME280;53694;49.784;30.150;2023-02-28T05:09:44;100888.28;;;-1.95;67.61
61474;BME280;53694;49.784;30.150;2023-02-28T05:10:45;100890.42;;;-1.97;67.50
61474;BME280;53694;49.784;30.150;2023-02-28T05:11:47;100896.30;;;-2.01;67.62
61474;BME280;53694;49.784;30.150;2023-02-28T05:12:49;100894.94;;;-2.03;67.64
61474;BME280;53694;49.784;30.150;2023-02-28T05:13:51;100887.89;;;-2.04;67.67
61474;BME280;53694;49.784;30.150;2023-02-28T05:14:53;100885.45;;;-2.06;67.80
61474;BME280;53694;49.784;30.150;2023-02-28T05:15:55;100881.63;;;-2.10;67.78
61474;BME280;53694;49.784;30.150;2023-02-28T05:16:56;100881.63;;;-2.10;68.09
61474;BME280;53694;49.784;30.150;2023-02-28T05:17:58;100874.63;;;-2.11;68.12
61474;BME280;53694;49.784;30.150;2023-02-28T05:18:59;100878.13;;;-2.10;68.08
61474;BME280;53694;49.784;30.150;2023-02-28T05:20:01;100881.08;;;-2.12;68.05
61474;BME280;53694;49.784;30.150;2023-02-28T05:21:03;100881.30;;;-2.13;67.89
61474;BME280;53694;49.784;30.150;2023-02-28T05:22:04;100887.75;;;-2.14;67.96
61474;BME280;53694;49.784;30.150;2023-02-28T05:23:06;100890.19;;;-2.13;68.02
61474;BME280;53694;49.784;30.150;2023-02-28T05:24:10;100891.59;;;-2.10;68.30
61474;BME280;53694;49.784;30.150;2023-02-28T05:25:14;100892.39;;;-2.10;68.31
61474;BME280;53694;49.784;30.150;2023-02-28T05:26:16;100892.98;;;-2.08;68.18
61474;BME280;53694;49.784;30.150;2023-02-28T05:27:18;100895.67;;;-2.08;68.24
61474;BME280;53694;49.784;30.150;2023-02-28T05:28:20;100894.61;;;-2.07;68.46
61474;BME280;53694;49.784;30.150;2023-02-28T05:29:21;100892.72;;;-2.06;68.46
61474;BME280;53694;49.784;30.150;2023-02-28T05:30:23;100888.16;;;-2.06;68.37
61474;BME280;53694;49.784;30.150;2023-02-28T05:31:25;100895.16;;;-2.05;68.34
61474;BME280;53694;49.784;30.150;2023-02-28T05:32:27;100903.81;;;-2.03;68.43
61474;BME280;53694;49.784;30.150;2023-02-28T05:33:28;100898.44;;;-2.03;68.55
61474;BME280;53694;49.784;30.150;2023-02-28T05:34:29;100900.05;;;-2.02;68.56
61474;BME280;53694;49.784;30.150;2023-02-28T05:35:31;100897.95;;;-1.99;68.49
61474;BME280;53694;49.784;30.150;2023-02-28T05:36:33;100894.19;;;-1.98;68.24
61474;BME280;53694;49.784;30.150;2023-02-28T05:37:35;100897.95;;;-1.99;68.25
61474;BME280;53694;49.784;30.150;2023-02-28T05:38:37;100899.58;;;-1.98;68.34
61474;BME280;53694;49.784;30.150;2023-02-28T05:39:39;100903.89;;;-1.97;68.33
61474;BME280;53694;49.784;30.150;2023-02-28T05:40:40;100899.58;;;-1.98;68.08
61474;BME280;53694;49.784;30.150;2023-02-28T05:41:42;100901.68;;;-2.01;68.06
61474;BME280;53694;49.784;30.150;2023-02-28T05:42:44;100900.05;;;-2.02;68.16
61474;BME280;53694;49.784;30.150;2023-02-28T05:43:47;100908.72;;;-1.99;68.24
61474;BME280;53694;49.784;30.150;2023-02-28T05:44:48;100908.72;;;-1.99;68.41
61474;BME280;53694;49.784;30.150;2023-02-28T05:45:51;100908.20;;;-1.96;68.62
61474;BME280;53694;49.784;30.150;2023-02-28T05:46:53;100905.84;;;-1.93;68.59
61474;BME280;53694;49.784;30.150;2023-02-28T05:47:55;100908.05;;;-1.90;68.46
61474;BME280;53694;49.784;30.150;2023-02-28T05:48:56;100915.63;;;-1.87;68.27
61474;BME280;53694;49.784;30.150;2023-02-28T05:49:58;100912.94;;;-1.87;67.81
61474;BME280;53694;49.784;30.150;2023-02-28T05:50:59;100918.33;;;-1.87;67.59
61474;BME280;53694;49.784;30.150;2023-02-28T05:52:01;100915.86;;;-1.88;67.48
61474;BME280;53694;49.784;30.150;2023-02-28T05:53:03;100910.48;;;-1.88;67.25
61474;BME280;53694;49.784;30.150;2023-02-28T05:54:05;100913.17;;;-1.88;66.90
61474;BME280;53694;49.784;30.150;2023-02-28T05:55:08;100912.62;;;-1.90;66.90
61474;BME280;53694;49.784;30.150;2023-02-28T05:56:10;100910.96;;;-1.91;66.82
61474;BME280;53694;49.784;30.150;2023-02-28T05:57:12;100913.66;;;-1.91;66.90
61474;BME280;53694;49.784;30.150;2023-02-28T05:58:14;100918.00;;;-1.90;67.15
61474;BME280;53694;49.784;30.150;2023-02-28T05:59:15;100912.62;;;-1.90;66.84
61474;BME280;53694;49.784;30.150;2023-02-28T06:00:18;100913.66;;;-1.91;66.50
61474;BME280;53694;49.784;30.150;2023-02-28T06:01:40;100913.10;;;-1.93;66.38
61474;BME280;53694;49.784;30.150;2023-02-28T06:02:40;100915.21;;;-1.95;66.57
61474;BME280;53694;49.784;30.150;2023-02-28T06:03:42;100909.20;;;-2.03;66.11
61474;BME280;53694;49.784;30.150;2023-02-28T06:04:44;100895.67;;;-2.08;65.72
61474;BME280;53694;49.784;30.150;2023-02-28T06:05:46;100900.73;;;-2.11;65.80
61474;BME280;53694;49.784;30.150;2023-02-28T06:06:49;100897.45;;;-2.13;65.46
61474;BME280;53694;49.784;30.150;2023-02-28T06:07:50;100891.25;;;-2.14;65.41